sensor_id;sensor_type;location;lat;lon;timestamp;temperature;humidity
18581;DHT22;9420;50.876;7.012;2023-04-25T00:00:46;7.70;1.00
18581;DHT22;9420;50.876;7.012;2023-04-25T00:03:13;7.70;1.00
18581;DHT22;9420;50.876;7.012;2023-04-25T00:05:40;7.60;1.00
18581;DHT22;9420;50.876;7.012;2023-04-25T00:10:51;7.60;1.00
18581;DHT22;9420;50.876;7.012;2023-04-25T00:13:19;7.60;1.00
18581;DHT22;9420;50.876;7.012;2023-04-25T00:15:47;7.70;1.00
18581;DHT22;9420;50.876;7.012;2023-04-25T00:18:14;7.70;1.00
18581;DHT22;9420;50.876;7.012;2023-04-25T00:20:43;7.70;1.00
18581;DHT22;9420;50.876;7.012;2023-04-25T00:23:12;7.60;1.00
18581;DHT22;9420;50.876;7.012;2023-04-25T00:25:43;7.60;1.00
18581;DHT22;9420;50.876;7.012;2023-04-25T00:28:10;7.60;1.00
18581;DHT22;9420;50.876;7.012;2023-04-25T00:30:39;7.50;1.00
18581;DHT22;9420;50.876;7.012;2023-04-25T00:33:06;7.50;1.00
18581;DHT22;9420;50.876;7.012;2023-04-25T00:35:34;7.50;11.30
18581;DHT22;9420;50.876;7.012;2023-04-25T00:38:02;7.50;1.00
18581;DHT22;9420;50.876;7.012;2023-04-25T00:40:29;7.40;48.00
18581;DHT22;9420;50.876;7.012;2023-04-25T00:42:56;7.40;1.00
18581;DHT22;9420;50.876;7.012;2023-04-25T00:45:26;7.40;91.20
18581;DHT22;9420;50.876;7.012;2023-04-25T00:47:56;7.30;99.90
18581;DHT22;9420;50.876;7.012;2023-04-25T00:50:24;7.30;99.90
18581;DHT22;9420;50.876;7.012;2023-04-25T00:52:51;7.20;99.90
18581;DHT22;9420;50.876;7.012;2023-04-25T00:55:19;7.10;99.90
18581;DHT22;9420;50.876;7.012;2023-04-25T00:57:46;7.10;99.90
18581;DHT22;9420;50.876;7.012;2023-04-25T01:00:14;7.00;99.90
18581;DHT22;9420;50.876;7.012;2023-04-25T01:02:41;7.00;99.90
18581;DHT22;9420;50.876;7.012;2023-04-25T01:05:12;6.90;99.90
18581;DHT22;9420;50.876;7.012;2023-04-25T01:07:44;6.90;99.90
18581;DHT22;9420;50.876;7.012;2023-04-25T01:10:12;6.90;1.00
18581;DHT22;9420;50.876;7.012;2023-04-25T01:12:41;6.70;1.00
18581;DHT22;9420;50.876;7.012;2023-04-25T01:15:08;6.60;1.00
18581;DHT22;9420;50.876;7.012;2023-04-25T01:17:36;6.70;1.00
18581;DHT22;9420;50.876;7.012;2023-04-25T01:20:04;6.70;1.00
18581;DHT22;9420;50.876;7.012;2023-04-25T01:22:34;6.60;1.00
18581;DHT22;9420;50.876;7.012;2023-04-25T01:25:02;6.60;1.00
18581;DHT22;9420;50.876;7.012;2023-04-25T01:27:29;6.50;1.00
18581;DHT22;9420;50.876;7.012;2023-04-25T01:29:57;6.50;1.00
18581;DHT22;9420;50.876;7.012;2023-04-25T01:32:24;6.50;1.00
18581;DHT22;9420;50.876;7.012;2023-04-25T01:34:52;6.30;1.00
18581;DHT22;9420;50.876;7.012;2023-04-25T01:37:19;6.30;1.00
18581;DHT22;9420;50.876;7.012;2023-04-25T01:39:48;6.20;1.00
18581;DHT22;9420;50.876;7.012;2023-04-25T01:42:15;6.10;1.00
18581;DHT22;9420;50.876;7.012;2023-04-25T01:44:43;6.20;1.00
18581;DHT22;9420;50.876;7.012;2023-04-25T01:47:10;6.10;1.00
18581;DHT22;9420;50.876;7.012;2023-04-25T01:49:37;6.10;1.00
18581;DHT22;9420;50.876;7.012;2023-04-25T01:52:04;6.00;1.00
18581;DHT22;9420;50.876;7.012;2023-04-25T01:54:31;6.00;3.10
18581;DHT22;9420;50.876;7.012;2023-04-25T01:57:00;6.10;1.00
18581;DHT22;9420;50.876;7.012;2023-04-25T01:59:27;6.10;1.00
18581;DHT22;9420;50.876;7.012;2023-04-25T02:01:54;6.20;1.00
18581;DHT22;9420;50.876;7.012;2023-04-25T02:04:21;6.20;1.00
18581;DHT22;9420;50.876;7.012;2023-04-25T02:06:48;6.20;1.00
18581;DHT22;9420;50.876;7.012;2023-04-25T02:09:15;6.10;1.00
18581;DHT22;9420;50.876;7.012;2023-04-25T02:11:42;6.10;1.00
18581;DHT22;9420;50.876;7.012;2023-04-25T02:14:10;6.00;1.00
18581;DHT22;9420;50.876;7.012;2023-04-25T02:16:37;5.90;25.70
18581;DHT22;9420;50.876;7.012;2023-04-25T02:19:05;5.90;3.10
18581;DHT22;9420;50.876;7.012;2023-04-25T02:21:33;5.90;1.00
18581;DHT22;9420;50.876;7.012;2023-04-25T02:24:01;6.00;1.00
18581;DHT22;9420;50.876;7.012;2023-04-25T02:26:28;5.90;18.30
18581;DHT22;9420;50.876;7.012;2023-04-25T02:28:59;5.80;99.90
18581;DHT22;9420;50.876;7.012;2023-04-25T02:31:28;5.80;99.90
18581;DHT22;9420;50.876;7.012;2023-04-25T02:33:55;5.90;94.90
18581;DHT22;9420;50.876;7.012;2023-04-25T02:36:22;5.90;99.90
18581;DHT22;9420;50.876;7.012;2023-04-25T02:38:49;6.00;6.20
18581;DHT22;9420;50.876;7.012;2023-04-25T02:41:17;6.00;21.90
18581;DHT22;9420;50.876;7.012;2023-04-25T02:43:44;6.00;80.30
18581;DHT22;9420;50.876;7.012;2023-04-25T02:46:11;6.00;99.90
18581;DHT22;9420;50.876;7.012;2023-04-25T02:48:39;5.90;99.90
18581;DHT22;9420;50.876;7.012;2023-04-25T02:51:06;6.00;24.80
18581;DHT22;9420;50.876;7.012;2023-04-25T02:53:34;6.00;1.00
18581;DHT22;9420;50.876;7.012;2023-04-25T02:56:01;6.00;1.00
18581;DHT22;9420;50.876;7.012;2023-04-25T02:58:28;6.10;1.00
18581;DHT22;9420;50.876;7.012;2023-04-25T03:00:55;6.10;1.00
18581;DHT22;9420;50.876;7.012;2023-04-25T03:03:22;6.10;1.00
18581;DHT22;9420;50.876;7.012;2023-04-25T03:05:50;6.10;1.00
18581;DHT22;9420;50.876;7.012;2023-04-25T03:08:18;6.10;1.00
18581;DHT22;9420;50.876;7.012;2023-04-25T03:10:49;6.20;1.00
18581;DHT22;9420;50.876;7.012;2023-04-25T03:13:21;6.20;1.00
18581;DHT22;9420;50.876;7.012;2023-04-25T03:15:48;6.20;1.00
18581;DHT22;9420;50.876;7.012;2023-04-25T03:18:14;6.30;1.00
18581;DHT22;9420;50.876;7.012;2023-04-25T03:20:42;6.30;1.00
18581;DHT22;9420;50.876;7.012;2023-04-25T03:23:10;6.40;1.00
18581;DHT22;9420;50.876;7.012;2023-04-25T03:25:37;6.40;1.00
18581;DHT22;9420;50.876;7.012;2023-04-25T03:28:04;6.40;1.00
18581;DHT22;9420;50.876;7.012;2023-04-25T03:30:31;6.40;1.00
18581;DHT22;9420;50.876;7.012;2023-04-25T03:32:58;6.40;1.00
18581;DHT22;9420;50.876;7.012;2023-04-25T03:35:25;6.40;1.00
18581;DHT22;9420;50.876;7.012;2023-04-25T03:37:53;6.50;1.00
18581;DHT22;9420;50.876;7.012;2023-04-25T03:40:21;6.50;1.00
18581;DHT22;9420;50.876;7.012;2023-04-25T03:42:48;6.50;1.00
18581;DHT22;9420;50.876;7.012;2023-04-25T03:45:15;6.60;1.00
18581;DHT22;9420;50.876;7.012;2023-04-25T03:47:42;6.50;1.00
18581;DHT22;9420;50.876;7.012;2023-04-25T03:50:10;6.60;1.00
18581;DHT22;9420;50.876;7.012;2023-04-25T03:52:37;6.50;1.00
18581;DHT22;9420;50.876;7.012;2023-04-25T03:55:04;6.50;1.00
18581;DHT22;9420;50.876;7.012;2023-04-25T03:57:34;6.60;1.00
18581;DHT22;9420;50.876;7.012;2023-04-25T04:00:01;6.50;1.00
18581;DHT22;9420;50.876;7.012;2023-04-25T04:02:31;6.60;1.00
18581;DHT22;9420;50.876;7.012;2023-04-25T04:04:58;6.50;1.00
18581;DHT22;9420;50.876;7.012;2023-04-25T04:07:25;6.50;1.00
18581;DHT22;9420;50.876;7.012;2023-04-25T04:09:52;6.50;1.00
18581;DHT22;9420;50.876;7.012;2023-04-25T04:12:19;6.50;1.00
18581;DHT22;9420;50.876;7.012;2023-04-25T04:14:48;6.50;1.00
18581;DHT22;9420;50.876;7.012;2023-04-25T04:17:15;6.50;1.00
18581;DHT22;9420;50.876;7.012;2023-04-25T04:19:42;6.50;1.00
18581;DHT22;9420;50.876;7.012;2023-04-25T04:22:09;6.50;1.00
18581;DHT22;9420;50.876;7.012;2023-04-25T04:24:36;6.50;1.00
18581;DHT22;9420;50.876;7.012;2023-04-25T04:27:06;6.50;1.00
18581;DHT22;9420;50.876;7.012;2023-04-25T04:29:33;6.50;1.00
18581;DHT22;9420;50.876;7.012;2023-04-25T04:32:01;6.50;1.00
18581;DHT22;9420;50.876;7.012;2023-04-25T04:34:28;6.50;1.00
18581;DHT22;9420;50.876;7.012;2023-04-25T04:36:56;6.50;1.00
18581;DHT22;9420;50.876;7.012;2023-04-25T04:39:24;6.50;1.00
18581;DHT22;9420;50.876;7.012;2023-04-25T04:41:51;6.50;1.00
18581;DHT22;9420;50.876;7.012;2023-04-25T04:44:19;6.60;29.60
18581;DHT22;9420;50.876;7.012;2023-04-25T04:46:46;6.60;1.00
18581;DHT22;9420;50.876;7.012;2023-04-25T04:49:15;6.60;1.00
18581;DHT22;9420;50.876;7.012;2023-04-25T04:51:43;6.60;1.00
18581;DHT22;9420;50.876;7.012;2023-04-25T04:54:10;6.60;1.00
18581;DHT22;9420;50.876;7.012;2023-04-25T04:56:38;6.60;1.00
18581;DHT22;9420;50.876;7.012;2023-04-25T04:59:07;6.60;1.00
18581;DHT22;9420;50.876;7.012;2023-04-25T05:01:36;6.70;1.00
18581;DHT22;9420;50.876;7.012;2023-04-25T05:04:03;6.70;1.00
18581;DHT22;9420;50.876;7.012;2023-04-25T05:06:33;6.80;67.40
18581;DHT22;9420;50.876;7.012;2023-04-25T05:09:00;6.70;1.00
18581;DHT22;9420;50.876;7.012;2023-04-25T05:11:27;6.70;1.00
18581;DHT22;9420;50.876;7.012;2023-04-25T05:13:54;6.80;1.00
18581;DHT22;9420;50.876;7.012;2023-04-25T05:16:21;6.80;1.00
18581;DHT22;9420;50.876;7.012;2023-04-25T05:18:48;6.80;1.00
18581;DHT22;9420;50.876;7.012;2023-04-25T05:21:15;6.80;1.00
18581;DHT22;9420;50.876;7.012;2023-04-25T05:23:44;6.80;1.00
18581;DHT22;9420;50.876;7.012;2023-04-25T05:26:11;6.80;1.00
18581;DHT22;9420;50.876;7.012;2023-04-25T05:28:40;6.80;1.00
18581;DHT22;9420;50.876;7.012;2023-04-25T05:31:08;6.90;1.00
18581;DHT22;9420;50.876;7.012;2023-04-25T05:33:37;6.90;1.00
18581;DHT22;9420;50.876;7.012;2023-04-25T05:36:05;6.90;1.00
18581;DHT22;9420;50.876;7.012;2023-04-25T05:38:33;6.90;1.00
18581;DHT22;9420;50.876;7.012;2023-04-25T05:41:05;7.00;1.00
18581;DHT22;9420;50.876;7.012;2023-04-25T05:43:33;6.90;1.00
18581;DHT22;9420;50.876;7.012;2023-04-25T05:46:00;7.00;1.00
18581;DHT22;9420;50.876;7.012;2023-04-25T05:48:27;7.00;1.00
18581;DHT22;9420;50.876;7.012;2023-04-25T05:50:55;7.00;1.00
18581;DHT22;9420;50.876;7.012;2023-04-25T05:53:22;7.00;1.00
18581;DHT22;9420;50.876;7.012;2023-04-25T05:55:49;7.00;1.00
18581;DHT22;9420;50.876;7.012;2023-04-25T05:58:18;7.10;1.00
18581;DHT22;9420;50.876;7.012;2023-04-25T06:00:45;7.00;1.00
18581;DHT22;9420;50.876;7.012;2023-04-25T06:03:12;7.00;1.00
18581;DHT22;9420;50.876;7.012;2023-04-25T06:05:41;7.10;1.00
18581;DHT22;9420;50.876;7.012;2023-04-25T06:08:08;7.20;1.00
18581;DHT22;9420;50.876;7.012;2023-04-25T06:10:36;7.30;1.00
18581;DHT22;9420;50.876;7.012;2023-04-25T06:13:04;7.30;1.00
18581;DHT22;9420;50.876;7.012;2023-04-25T06:15:33;7.30;1.00
18581;DHT22;9420;50.876;7.012;2023-04-25T06:18:00;7.50;1.00
18581;DHT22;9420;50.876;7.012;2023-04-25T06:20:27;7.50;99.90
18581;DHT22;9420;50.876;7.012;2023-04-25T06:22:54;7.70;99.90
18581;DHT22;9420;50.876;7.012;2023-04-25T06:25:21;7.60;99.90
18581;DHT22;9420;50.876;7.012;2023-04-25T06:27:48;7.70;99.90
18581;DHT22;9420;50.876;7.012;2023-04-25T06:30:15;7.80;99.90
18581;DHT22;9420;50.876;7.012;2023-04-25T06:32:45;7.90;99.90
18581;DHT22;9420;50.876;7.012;2023-04-25T06:37:53;8.00;1.00
18581;DHT22;9420;50.876;7.012;2023-04-25T06:40:20;8.10;37.30
18581;DHT22;9420;50.876;7.012;2023-04-25T06:45:18;8.30;1.00
18581;DHT22;9420;50.876;7.012;2023-04-25T06:47:57;8.10;1.00
18581;DHT22;9420;50.876;7.012;2023-04-25T06:50:25;8.10;1.00
18581;DHT22;9420;50.876;7.012;2023-04-25T06:52:52;8.30;1.00
18581;DHT22;9420;50.876;7.012;2023-04-25T06:55:20;8.40;1.00
18581;DHT22;9420;50.876;7.012;2023-04-25T06:57:47;8.80;1.00
18581;DHT22;9420;50.876;7.012;2023-04-25T07:00:15;9.10;1.00
18581;DHT22;9420;50.876;7.012;2023-04-25T07:02:43;9.30;1.00
18581;DHT22;9420;50.876;7.012;2023-04-25T07:05:14;9.10;1.00
18581;DHT22;9420;50.876;7.012;2023-04-25T07:07:41;9.30;1.00
18581;DHT22;9420;50.876;7.012;2023-04-25T07:10:09;9.40;1.00
18581;DHT22;9420;50.876;7.012;2023-04-25T07:12:36;9.40;1.00
18581;DHT22;9420;50.876;7.012;2023-04-25T07:15:04;9.30;1.00
18581;DHT22;9420;50.876;7.012;2023-04-25T07:17:33;9.20;1.00
18581;DHT22;9420;50.876;7.012;2023-04-25T07:20:00;9.50;1.00
18581;DHT22;9420;50.876;7.012;2023-04-25T07:22:30;9.70;99.90
18581;DHT22;9420;50.876;7.012;2023-04-25T07:24:57;9.90;99.90
18581;DHT22;9420;50.876;7.012;2023-04-25T07:27:24;10.00;99.90
18581;DHT22;9420;50.876;7.012;2023-04-25T07:29:51;9.40;99.90
18581;DHT22;9420;50.876;7.012;2023-04-25T07:32:19;9.20;99.90
18581;DHT22;9420;50.876;7.012;2023-04-25T07:34:46;8.90;99.90
18581;DHT22;9420;50.876;7.012;2023-04-25T07:37:13;9.00;99.90
18581;DHT22;9420;50.876;7.012;2023-04-25T07:39:42;9.30;99.90
18581;DHT22;9420;50.876;7.012;2023-04-25T07:42:09;9.20;99.90
18581;DHT22;9420;50.876;7.012;2023-04-25T07:44:36;9.40;99.90
18581;DHT22;9420;50.876;7.012;2023-04-25T07:47:04;9.40;99.90
18581;DHT22;9420;50.876;7.012;2023-04-25T07:49:33;9.40;99.90
18581;DHT22;9420;50.876;7.012;2023-04-25T07:52:04;9.60;99.90
18581;DHT22;9420;50.876;7.012;2023-04-25T07:54:32;9.50;99.90
18581;DHT22;9420;50.876;7.012;2023-04-25T07:57:01;9.40;99.90
18581;DHT22;9420;50.876;7.012;2023-04-25T07:59:28;9.10;99.90
18581;DHT22;9420;50.876;7.012;2023-04-25T08:01:55;9.00;99.90
18581;DHT22;9420;50.876;7.012;2023-04-25T08:04:23;8.90;99.90
18581;DHT22;9420;50.876;7.012;2023-04-25T08:06:51;9.00;99.90
18581;DHT22;9420;50.876;7.012;2023-04-25T08:09:19;9.10;99.90
18581;DHT22;9420;50.876;7.012;2023-04-25T08:11:46;9.30;99.90
18581;DHT22;9420;50.876;7.012;2023-04-25T08:14:15;9.30;21.60
18581;DHT22;9420;50.876;7.012;2023-04-25T08:16:42;9.60;1.20
18581;DHT22;9420;50.876;7.012;2023-04-25T08:19:09;9.40;1.00
18581;DHT22;9420;50.876;7.012;2023-04-25T08:21:37;9.70;1.00
18581;DHT22;9420;50.876;7.012;2023-04-25T08:24:05;9.50;1.00
18581;DHT22;9420;50.876;7.012;2023-04-25T08:26:32;9.30;1.00
18581;DHT22;9420;50.876;7.012;2023-04-25T08:29:00;9.70;1.00
18581;DHT22;9420;50.876;7.012;2023-04-25T08:31:28;9.90;1.00
18581;DHT22;9420;50.876;7.012;2023-04-25T08:33:55;10.00;1.00
18581;DHT22;9420;50.876;7.012;2023-04-25T08:36:22;10.00;1.00
18581;DHT22;9420;50.876;7.012;2023-04-25T08:38:49;10.00;1.00
18581;DHT22;9420;50.876;7.012;2023-04-25T08:41:17;10.00;1.00
18581;DHT22;9420;50.876;7.012;2023-04-25T08:43:48;10.20;1.00
18581;DHT22;9420;50.876;7.012;2023-04-25T08:46:18;10.50;1.00
18581;DHT22;9420;50.876;7.012;2023-04-25T08:48:47;10.40;1.00
18581;DHT22;9420;50.876;7.012;2023-04-25T08:51:21;10.60;1.00
18581;DHT22;9420;50.876;7.012;2023-04-25T08:53:51;10.20;1.00
18581;DHT22;9420;50.876;7.012;2023-04-25T08:56:19;9.80;1.00
18581;DHT22;9420;50.876;7.012;2023-04-25T08:58:48;9.70;1.00
18581;DHT22;9420;50.876;7.012;2023-04-25T09:01:16;9.80;1.00
18581;DHT22;9420;50.876;7.012;2023-04-25T09:03:44;10.00;1.00
18581;DHT22;9420;50.876;7.012;2023-04-25T09:06:14;10.20;1.00
18581;DHT22;9420;50.876;7.012;2023-04-25T09:08:44;10.40;1.00
18581;DHT22;9420;50.876;7.012;2023-04-25T09:11:12;10.10;1.00
18581;DHT22;9420;50.876;7.012;2023-04-25T09:13:40;9.90;1.00
18581;DHT22;9420;50.876;7.012;2023-04-25T09:16:07;9.90;1.00
18581;DHT22;9420;50.876;7.012;2023-04-25T09:18:34;10.00;1.00
18581;DHT22;9420;50.876;7.012;2023-04-25T09:21:06;9.80;1.00
18581;DHT22;9420;50.876;7.012;2023-04-25T09:23:41;9.70;1.00
18581;DHT22;9420;50.876;7.012;2023-04-25T09:26:10;9.80;1.00
18581;DHT22;9420;50.876;7.012;2023-04-25T09:28:40;9.70;1.00
18581;DHT22;9420;50.876;7.012;2023-04-25T09:31:10;9.70;1.00
18581;DHT22;9420;50.876;7.012;2023-04-25T09:33:37;9.70;1.00
18581;DHT22;9420;50.876;7.012;2023-04-25T09:36:07;9.60;1.00
18581;DHT22;9420;50.876;7.012;2023-04-25T09:38:42;9.50;1.00
18581;DHT22;9420;50.876;7.012;2023-04-25T09:41:10;9.60;1.00
18581;DHT22;9420;50.876;7.012;2023-04-25T09:43:39;9.70;1.00
18581;DHT22;9420;50.876;7.012;2023-04-25T09:46:09;9.60;1.00
18581;DHT22;9420;50.876;7.012;2023-04-25T09:48:37;9.50;1.00
18581;DHT22;9420;50.876;7.012;2023-04-25T09:51:08;9.50;1.00
18581;DHT22;9420;50.876;7.012;2023-04-25T09:53:38;9.70;1.00
18581;DHT22;9420;50.876;7.012;2023-04-25T09:56:09;9.90;1.00
18581;DHT22;9420;50.876;7.012;2023-04-25T09:58:38;9.90;1.00
18581;DHT22;9420;50.876;7.012;2023-04-25T10:01:07;9.90;1.00
18581;DHT22;9420;50.876;7.012;2023-04-25T10:03:37;10.20;1.00
18581;DHT22;9420;50.876;7.012;2023-04-25T10:06:08;10.10;1.00
18581;DHT22;9420;50.876;7.012;2023-04-25T10:08:38;10.10;1.00
18581;DHT22;9420;50.876;7.012;2023-04-25T10:11:08;10.20;1.00
18581;DHT22;9420;50.876;7.012;2023-04-25T10:13:35;10.00;1.00
18581;DHT22;9420;50.876;7.012;2023-04-25T10:16:04;10.30;1.00
18581;DHT22;9420;50.876;7.012;2023-04-25T10:18:32;10.50;1.00
18581;DHT22;9420;50.876;7.012;2023-04-25T10:21:01;10.30;1.00
18581;DHT22;9420;50.876;7.012;2023-04-25T10:23:30;10.00;1.00
18581;DHT22;9420;50.876;7.012;2023-04-25T10:26:00;9.70;1.00
18581;DHT22;9420;50.876;7.012;2023-04-25T10:28:58;9.70;1.00
18581;DHT22;9420;50.876;7.012;2023-04-25T10:31:26;9.60;1.00
18581;DHT22;9420;50.876;7.012;2023-04-25T10:33:56;9.40;1.00
18581;DHT22;9420;50.876;7.012;2023-04-25T10:36:24;9.40;1.00
18581;DHT22;9420;50.876;7.012;2023-04-25T10:38:52;9.30;1.00
18581;DHT22;9420;50.876;7.012;2023-04-25T10:41:21;9.20;1.00
18581;DHT22;9420;50.876;7.012;2023-04-25T10:43:49;9.10;1.00
18581;DHT22;9420;50.876;7.012;2023-04-25T10:46:27;9.20;1.00
18581;DHT22;9420;50.876;7.012;2023-04-25T10:48:57;9.30;1.00
18581;DHT22;9420;50.876;7.012;2023-04-25T10:51:27;9.50;1.00
18581;DHT22;9420;50.876;7.012;2023-04-25T10:53:57;9.50;1.00
18581;DHT22;9420;50.876;7.012;2023-04-25T10:56:27;9.70;1.00
18581;DHT22;9420;50.876;7.012;2023-04-25T10:59:25;10.00;1.00
18581;DHT22;9420;50.876;7.012;2023-04-25T11:01:53;10.80;1.00
18581;DHT22;9420;50.876;7.012;2023-04-25T11:04:22;11.40;1.00
18581;DHT22;9420;50.876;7.012;2023-04-25T11:07:09;11.40;1.00
18581;DHT22;9420;50.876;7.012;2023-04-25T11:09:40;11.20;1.00
18581;DHT22;9420;50.876;7.012;2023-04-25T11:12:08;10.70;1.00
18581;DHT22;9420;50.876;7.012;2023-04-25T11:14:37;10.40;1.00
18581;DHT22;9420;50.876;7.012;2023-04-25T11:17:05;10.30;1.00
18581;DHT22;9420;50.876;7.012;2023-04-25T11:19:33;10.30;1.00
18581;DHT22;9420;50.876;7.012;2023-04-25T11:22:01;10.10;1.00
18581;DHT22;9420;50.876;7.012;2023-04-25T11:24:31;9.90;1.00
18581;DHT22;9420;50.876;7.012;2023-04-25T11:27:00;9.80;1.00
18581;DHT22;9420;50.876;7.012;2023-04-25T11:29:30;9.90;1.00
18581;DHT22;9420;50.876;7.012;2023-04-25T11:31:59;10.10;1.00
18581;DHT22;9420;50.876;7.012;2023-04-25T11:34:28;10.20;1.00
18581;DHT22;9420;50.876;7.012;2023-04-25T11:36:56;10.00;1.00
18581;DHT22;9420;50.876;7.012;2023-04-25T11:39:25;9.90;1.00
18581;DHT22;9420;50.876;7.012;2023-04-25T11:41:53;10.00;1.00
18581;DHT22;9420;50.876;7.012;2023-04-25T11:44:24;10.10;1.00
18581;DHT22;9420;50.876;7.012;2023-04-25T11:46:52;10.20;1.00
18581;DHT22;9420;50.876;7.012;2023-04-25T11:49:19;10.40;1.00
18581;DHT22;9420;50.876;7.012;2023-04-25T11:51:48;10.50;1.00
18581;DHT22;9420;50.876;7.012;2023-04-25T11:54:16;10.60;1.00
18581;DHT22;9420;50.876;7.012;2023-04-25T11:56:43;10.90;1.00
18581;DHT22;9420;50.876;7.012;2023-04-25T11:59:11;11.00;1.00
18581;DHT22;9420;50.876;7.012;2023-04-25T12:01:41;11.40;1.00
18581;DHT22;9420;50.876;7.012;2023-04-25T12:04:15;12.80;1.00
18581;DHT22;9420;50.876;7.012;2023-04-25T12:06:44;14.70;1.00
18581;DHT22;9420;50.876;7.012;2023-04-25T12:09:16;14.60;99.90
18581;DHT22;9420;50.876;7.012;2023-04-25T12:11:45;14.00;99.90
18581;DHT22;9420;50.876;7.012;2023-04-25T12:14:20;14.40;99.90
18581;DHT22;9420;50.876;7.012;2023-04-25T12:16:50;14.20;99.90
18581;DHT22;9420;50.876;7.012;2023-04-25T12:19:20;13.60;99.90
18581;DHT22;9420;50.876;7.012;2023-04-25T12:21:48;12.70;99.90
18581;DHT22;9420;50.876;7.012;2023-04-25T12:24:18;13.80;99.90
18581;DHT22;9420;50.876;7.012;2023-04-25T12:26:51;14.50;99.90
18581;DHT22;9420;50.876;7.012;2023-04-25T12:29:21;14.80;99.90
18581;DHT22;9420;50.876;7.012;2023-04-25T12:31:50;15.30;99.90
18581;DHT22;9420;50.876;7.012;2023-04-25T12:34:19;15.20;99.90
18581;DHT22;9420;50.876;7.012;2023-04-25T12:36:46;14.50;99.90
18581;DHT22;9420;50.876;7.012;2023-04-25T12:39:19;14.90;99.90
18581;DHT22;9420;50.876;7.012;2023-04-25T12:41:48;16.40;99.90
18581;DHT22;9420;50.876;7.012;2023-04-25T12:44:15;17.30;99.90
18581;DHT22;9420;50.876;7.012;2023-04-25T12:46:45;16.80;99.90
18581;DHT22;9420;50.876;7.012;2023-04-25T12:49:14;15.70;99.90
18581;DHT22;9420;50.876;7.012;2023-04-25T12:51:41;15.50;99.90
18581;DHT22;9420;50.876;7.012;2023-04-25T12:54:08;14.60;99.90
18581;DHT22;9420;50.876;7.012;2023-04-25T12:56:37;13.70;99.90
18581;DHT22;9420;50.876;7.012;2023-04-25T12:59:04;14.10;99.90
18581;DHT22;9420;50.876;7.012;2023-04-25T13:01:31;13.20;99.90
18581;DHT22;9420;50.876;7.012;2023-04-25T13:03:58;13.00;99.90
18581;DHT22;9420;50.876;7.012;2023-04-25T13:06:26;12.80;99.90
18581;DHT22;9420;50.876;7.012;2023-04-25T13:08:53;12.50;99.90
18581;DHT22;9420;50.876;7.012;2023-04-25T13:11:20;12.40;99.90
18581;DHT22;9420;50.876;7.012;2023-04-25T13:13:48;12.30;99.90
18581;DHT22;9420;50.876;7.012;2023-04-25T13:16:15;12.40;99.90
18581;DHT22;9420;50.876;7.012;2023-04-25T13:18:43;12.30;99.90
18581;DHT22;9420;50.876;7.012;2023-04-25T13:21:10;11.80;99.90
18581;DHT22;9420;50.876;7.012;2023-04-25T13:23:38;11.70;99.90
18581;DHT22;9420;50.876;7.012;2023-04-25T13:26:06;11.60;99.90
18581;DHT22;9420;50.876;7.012;2023-04-25T13:28:33;11.40;99.90
18581;DHT22;9420;50.876;7.012;2023-04-25T13:31:01;11.50;99.90
18581;DHT22;9420;50.876;7.012;2023-04-25T13:33:28;11.80;99.90
18581;DHT22;9420;50.876;7.012;2023-04-25T13:35:56;11.80;99.90
18581;DHT22;9420;50.876;7.012;2023-04-25T13:38:23;11.40;99.90
18581;DHT22;9420;50.876;7.012;2023-04-25T13:40:52;11.60;99.90
18581;DHT22;9420;50.876;7.012;2023-04-25T13:43:20;11.20;99.90
18581;DHT22;9420;50.876;7.012;2023-04-25T13:45:47;11.40;99.90
18581;DHT22;9420;50.876;7.012;2023-04-25T13:48:19;11.20;99.90
18581;DHT22;9420;50.876;7.012;2023-04-25T13:50:46;11.60;99.90
18581;DHT22;9420;50.876;7.012;2023-04-25T13:53:13;11.70;99.90
18581;DHT22;9420;50.876;7.012;2023-04-25T13:55:40;11.70;99.90
18581;DHT22;9420;50.876;7.012;2023-04-25T13:58:07;11.60;99.90
18581;DHT22;9420;50.876;7.012;2023-04-25T14:00:36;12.90;99.90
18581;DHT22;9420;50.876;7.012;2023-04-25T14:03:05;14.10;99.90
18581;DHT22;9420;50.876;7.012;2023-04-25T14:05:36;15.10;99.90
18581;DHT22;9420;50.876;7.012;2023-04-25T14:08:08;15.50;99.90
18581;DHT22;9420;50.876;7.012;2023-04-25T14:10:37;16.30;99.90
18581;DHT22;9420;50.876;7.012;2023-04-25T14:13:04;16.60;99.90
18581;DHT22;9420;50.876;7.012;2023-04-25T14:15:32;16.50;99.90
18581;DHT22;9420;50.876;7.012;2023-04-25T14:18:00;16.60;99.90
18581;DHT22;9420;50.876;7.012;2023-04-25T14:20:28;18.00;99.90
18581;DHT22;9420;50.876;7.012;2023-04-25T14:22:57;17.80;99.90
18581;DHT22;9420;50.876;7.012;2023-04-25T14:25:24;17.80;99.90
18581;DHT22;9420;50.876;7.012;2023-04-25T14:27:52;17.60;99.90
18581;DHT22;9420;50.876;7.012;2023-04-25T14:30:21;16.80;99.90
18581;DHT22;9420;50.876;7.012;2023-04-25T14:32:49;15.60;99.90
18581;DHT22;9420;50.876;7.012;2023-04-25T14:35:16;13.90;99.90
18581;DHT22;9420;50.876;7.012;2023-04-25T14:37:43;13.60;99.90
18581;DHT22;9420;50.876;7.012;2023-04-25T14:40:13;12.70;99.90
18581;DHT22;9420;50.876;7.012;2023-04-25T14:42:41;12.40;99.90
18581;DHT22;9420;50.876;7.012;2023-04-25T14:45:09;12.20;99.90
18581;DHT22;9420;50.876;7.012;2023-04-25T14:47:37;11.80;99.90
18581;DHT22;9420;50.876;7.012;2023-04-25T14:50:05;12.00;99.90
18581;DHT22;9420;50.876;7.012;2023-04-25T14:52:32;12.10;99.90
18581;DHT22;9420;50.876;7.012;2023-04-25T14:55:00;12.20;99.90
18581;DHT22;9420;50.876;7.012;2023-04-25T14:57:32;12.20;99.90
18581;DHT22;9420;50.876;7.012;2023-04-25T15:00:00;13.40;99.90
18581;DHT22;9420;50.876;7.012;2023-04-25T15:02:30;14.20;99.90
18581;DHT22;9420;50.876;7.012;2023-04-25T15:04:57;15.30;99.90
18581;DHT22;9420;50.876;7.012;2023-04-25T15:07:25;16.00;99.90
18581;DHT22;9420;50.876;7.012;2023-04-25T15:09:52;17.00;99.90
18581;DHT22;9420;50.876;7.012;2023-04-25T15:12:22;16.70;99.90
18581;DHT22;9420;50.876;7.012;2023-04-25T15:14:52;15.40;99.90
18581;DHT22;9420;50.876;7.012;2023-04-25T15:17:19;15.00;99.90
18581;DHT22;9420;50.876;7.012;2023-04-25T15:19:47;16.50;99.90
18581;DHT22;9420;50.876;7.012;2023-04-25T15:22:14;15.90;99.90
18581;DHT22;9420;50.876;7.012;2023-04-25T15:24:41;15.90;99.90
18581;DHT22;9420;50.876;7.012;2023-04-25T15:27:08;16.50;99.90
18581;DHT22;9420;50.876;7.012;2023-04-25T15:29:36;16.30;99.90
18581;DHT22;9420;50.876;7.012;2023-04-25T15:32:04;15.00;99.90
18581;DHT22;9420;50.876;7.012;2023-04-25T15:34:31;14.90;99.90
18581;DHT22;9420;50.876;7.012;2023-04-25T15:36:58;15.10;99.90
18581;DHT22;9420;50.876;7.012;2023-04-25T15:39:25;15.50;99.90
18581;DHT22;9420;50.876;7.012;2023-04-25T15:41:52;15.90;99.90
18581;DHT22;9420;50.876;7.012;2023-04-25T15:44:19;15.50;99.90
18581;DHT22;9420;50.876;7.012;2023-04-25T15:46:46;14.70;99.90
18581;DHT22;9420;50.876;7.012;2023-04-25T15:49:15;15.20;99.90
18581;DHT22;9420;50.876;7.012;2023-04-25T15:51:43;16.70;99.90
18581;DHT22;9420;50.876;7.012;2023-04-25T15:54:11;16.70;99.90
18581;DHT22;9420;50.876;7.012;2023-04-25T15:56:38;15.50;99.90
18581;DHT22;9420;50.876;7.012;2023-04-25T15:59:05;16.10;99.90
18581;DHT22;9420;50.876;7.012;2023-04-25T16:01:32;16.20;99.90
18581;DHT22;9420;50.876;7.012;2023-04-25T16:03:59;15.80;99.90
18581;DHT22;9420;50.876;7.012;2023-04-25T16:06:28;16.20;99.90
18581;DHT22;9420;50.876;7.012;2023-04-25T16:08:55;16.10;99.90
18581;DHT22;9420;50.876;7.012;2023-04-25T16:11:23;15.00;99.90
18581;DHT22;9420;50.876;7.012;2023-04-25T16:13:50;14.10;99.90
18581;DHT22;9420;50.876;7.012;2023-04-25T16:16:17;13.50;99.90
18581;DHT22;9420;50.876;7.012;2023-04-25T16:18:44;13.70;99.90